sensor_id;sensor_type;location;lat;lon;timestamp;temperature;humidity
35363;DHT22;21463;47.480;8.214;2022-11-12T00:00:01;21.10;45.40
35363;DHT22;21463;47.480;8.214;2022-11-12T00:01:23;21.10;45.40
35363;DHT22;21463;47.480;8.214;2022-11-12T00:02:45;21.10;45.40
35363;DHT22;21463;47.480;8.214;2022-11-12T00:04:07;21.10;45.40
35363;DHT22;21463;47.480;8.214;2022-11-12T00:05:32;21.10;45.40
35363;DHT22;21463;47.480;8.214;2022-11-12T00:06:53;21.10;45.40
35363;DHT22;21463;47.480;8.214;2022-11-12T00:08:15;21.10;45.40
35363;DHT22;21463;47.480;8.214;2022-11-12T00:09:36;21.10;45.40
35363;DHT22;21463;47.480;8.214;2022-11-12T00:11:00;21.10;45.40
35363;DHT22;21463;47.480;8.214;2022-11-12T00:12:21;21.10;45.50
35363;DHT22;21463;47.480;8.214;2022-11-12T00:13:43;21.10;45.50
35363;DHT22;21463;47.480;8.214;2022-11-12T00:15:18;21.10;45.40
35363;DHT22;21463;47.480;8.214;2022-11-12T00:16:39;21.10;45.50
35363;DHT22;21463;47.480;8.214;2022-11-12T00:18:05;21.10;45.40
35363;DHT22;21463;47.480;8.214;2022-11-12T00:19:28;21.10;45.50
35363;DHT22;21463;47.480;8.214;2022-11-12T00:20:51;21.10;45.40
35363;DHT22;21463;47.480;8.214;2022-11-12T00:22:11;21.10;45.50
35363;DHT22;21463;47.480;8.214;2022-11-12T00:23:32;21.10;45.50
35363;DHT22;21463;47.480;8.214;2022-11-12T00:24:54;21.10;45.50
35363;DHT22;21463;47.480;8.214;2022-11-12T00:26:14;21.10;45.50
35363;DHT22;21463;47.480;8.214;2022-11-12T00:27:36;21.10;45.50
35363;DHT22;21463;47.480;8.214;2022-11-12T00:28:58;21.10;45.50
35363;DHT22;21463;47.480;8.214;2022-11-12T00:30:18;21.20;45.50
35363;DHT22;21463;47.480;8.214;2022-11-12T00:31:40;21.10;45.50
35363;DHT22;21463;47.480;8.214;2022-11-12T00:33:18;21.10;45.50
35363;DHT22;21463;47.480;8.214;2022-11-12T00:34:41;21.10;45.50
35363;DHT22;21463;47.480;8.214;2022-11-12T00:36:02;21.10;45.50
35363;DHT22;21463;47.480;8.214;2022-11-12T00:37:25;21.10;45.50
35363;DHT22;21463;47.480;8.214;2022-11-12T00:38:46;21.10;45.50
35363;DHT22;21463;47.480;8.214;2022-11-12T00:40:07;21.10;45.50
35363;DHT22;21463;47.480;8.214;2022-11-12T00:41:29;21.10;45.50
35363;DHT22;21463;47.480;8.214;2022-11-12T00:42:53;21.10;45.50
35363;DHT22;21463;47.480;8.214;2022-11-12T00:44:13;21.10;45.50
35363;DHT22;21463;47.480;8.214;2022-11-12T00:45:35;21.10;45.50
35363;DHT22;21463;47.480;8.214;2022-11-12T00:46:57;21.10;45.50
35363;DHT22;21463;47.480;8.214;2022-11-12T00:48:20;21.10;45.50
35363;DHT22;21463;47.480;8.214;2022-11-12T00:49:41;21.10;45.50
35363;DHT22;21463;47.480;8.214;2022-11-12T00:51:03;21.10;45.50
35363;DHT22;21463;47.480;8.214;2022-11-12T00:52:25;21.10;45.50
35363;DHT22;21463;47.480;8.214;2022-11-12T00:53:52;21.10;46.10
35363;DHT22;21463;47.480;8.214;2022-11-12T00:55:13;21.10;45.50
35363;DHT22;21463;47.480;8.214;2022-11-12T00:56:35;21.10;45.50
35363;DHT22;21463;47.480;8.214;2022-11-12T00:57:59;21.10;45.50
35363;DHT22;21463;47.480;8.214;2022-11-12T00:59:21;21.10;45.50
35363;DHT22;21463;47.480;8.214;2022-11-12T01:00:49;21.10;45.50
35363;DHT22;21463;47.480;8.214;2022-11-12T01:02:10;21.10;45.50
35363;DHT22;21463;47.480;8.214;2022-11-12T01:03:31;21.10;45.50
35363;DHT22;21463;47.480;8.214;2022-11-12T01:04:52;21.10;45.50
35363;DHT22;21463;47.480;8.214;2022-11-12T01:06:19;21.10;45.50
35363;DHT22;21463;47.480;8.214;2022-11-12T01:07:44;21.10;45.50
35363;DHT22;21463;47.480;8.214;2022-11-12T01:09:13;21.10;45.50
35363;DHT22;21463;47.480;8.214;2022-11-12T01:10:36;21.10;45.50
35363;DHT22;21463;47.480;8.214;2022-11-12T01:11:59;21.10;45.60
35363;DHT22;21463;47.480;8.214;2022-11-12T01:13:24;21.10;45.60
35363;DHT22;21463;47.480;8.214;2022-11-12T01:14:45;21.10;45.50
35363;DHT22;21463;47.480;8.214;2022-11-12T01:16:08;21.10;45.50
35363;DHT22;21463;47.480;8.214;2022-11-12T01:17:32;21.10;45.60
35363;DHT22;21463;47.480;8.214;2022-11-12T01:19:01;21.10;45.50
35363;DHT22;21463;47.480;8.214;2022-11-12T01:20:22;21.10;45.60
35363;DHT22;21463;47.480;8.214;2022-11-12T01:21:43;21.10;45.50
35363;DHT22;21463;47.480;8.214;2022-11-12T01:23:06;21.10;45.50
35363;DHT22;21463;47.480;8.214;2022-11-12T01:24:28;21.10;45.50
35363;DHT22;21463;47.480;8.214;2022-11-12T01:25:50;21.10;45.50
35363;DHT22;21463;47.480;8.214;2022-11-12T01:27:11;21.10;45.60
35363;DHT22;21463;47.480;8.214;2022-11-12T01:28:33;21.20;45.60
35363;DHT22;21463;47.480;8.214;2022-11-12T01:30:00;21.10;45.50
35363;DHT22;21463;47.480;8.214;2022-11-12T01:31:26;21.00;45.50
35363;DHT22;21463;47.480;8.214;2022-11-12T01:32:49;21.10;45.50
35363;DHT22;21463;47.480;8.214;2022-11-12T01:34:16;21.10;46.20
35363;DHT22;21463;47.480;8.214;2022-11-12T01:35:57;21.10;45.60
35363;DHT22;21463;47.480;8.214;2022-11-12T01:37:19;21.20;45.60
35363;DHT22;21463;47.480;8.214;2022-11-12T01:38:46;21.10;45.60
35363;DHT22;21463;47.480;8.214;2022-11-12T01:40:09;21.10;45.60
35363;DHT22;21463;47.480;8.214;2022-11-12T01:41:34;21.10;45.60
35363;DHT22;21463;47.480;8.214;2022-11-12T01:42:57;21.10;45.60
35363;DHT22;21463;47.480;8.214;2022-11-12T01:44:23;21.00;45.50
35363;DHT22;21463;47.480;8.214;2022-11-12T01:45:48;21.10;45.60
35363;DHT22;21463;47.480;8.214;2022-11-12T01:48:51;21.10;45.60
35363;DHT22;21463;47.480;8.214;2022-11-12T01:50:31;21.10;45.60
35363;DHT22;21463;47.480;8.214;2022-11-12T01:51:56;21.10;45.60
35363;DHT22;21463;47.480;8.214;2022-11-12T01:53:22;21.10;45.60
35363;DHT22;21463;47.480;8.214;2022-11-12T01:54:48;21.10;45.60
35363;DHT22;21463;47.480;8.214;2022-11-12T01:56:14;21.10;45.60
35363;DHT22;21463;47.480;8.214;2022-11-12T01:57:58;21.10;45.60
35363;DHT22;21463;47.480;8.214;2022-11-12T01:59:26;21.10;45.60
35363;DHT22;21463;47.480;8.214;2022-11-12T02:00:49;21.10;45.60
35363;DHT22;21463;47.480;8.214;2022-11-12T02:02:13;21.10;45.60
35363;DHT22;21463;47.480;8.214;2022-11-12T02:03:36;21.10;45.60
35363;DHT22;21463;47.480;8.214;2022-11-12T02:04:58;21.10;45.60
35363;DHT22;21463;47.480;8.214;2022-11-12T02:06:23;21.10;45.60
35363;DHT22;21463;47.480;8.214;2022-11-12T02:08:00;21.10;45.60
35363;DHT22;21463;47.480;8.214;2022-11-12T02:09:23;21.10;45.60
35363;DHT22;21463;47.480;8.214;2022-11-12T02:10:44;21.10;45.60
35363;DHT22;21463;47.480;8.214;2022-11-12T02:12:05;21.10;45.60
35363;DHT22;21463;47.480;8.214;2022-11-12T02:13:43;21.10;45.60
35363;DHT22;21463;47.480;8.214;2022-11-12T02:15:20;21.20;45.70
35363;DHT22;21463;47.480;8.214;2022-11-12T02:16:43;21.10;45.60
35363;DHT22;21463;47.480;8.214;2022-11-12T02:18:05;21.10;45.60
35363;DHT22;21463;47.480;8.214;2022-11-12T02:19:27;21.10;45.60
35363;DHT22;21463;47.480;8.214;2022-11-12T02:20:53;21.20;45.70
35363;DHT22;21463;47.480;8.214;2022-11-12T02:22:16;21.10;45.60
35363;DHT22;21463;47.480;8.214;2022-11-12T02:23:37;21.10;45.60
35363;DHT22;21463;47.480;8.214;2022-11-12T02:24:59;21.10;45.60
35363;DHT22;21463;47.480;8.214;2022-11-12T02:26:20;21.10;45.60
35363;DHT22;21463;47.480;8.214;2022-11-12T02:27:43;21.10;45.60
35363;DHT22;21463;47.480;8.214;2022-11-12T02:29:05;21.10;45.70
35363;DHT22;21463;47.480;8.214;2022-11-12T02:30:32;21.10;45.70
35363;DHT22;21463;47.480;8.214;2022-11-12T02:31:53;21.10;45.60
35363;DHT22;21463;47.480;8.214;2022-11-12T02:33:16;21.10;45.60
35363;DHT22;21463;47.480;8.214;2022-11-12T02:34:38;21.10;45.70
35363;DHT22;21463;47.480;8.214;2022-11-12T02:35:59;21.00;45.60
35363;DHT22;21463;47.480;8.214;2022-11-12T02:37:20;21.10;45.70
35363;DHT22;21463;47.480;8.214;2022-11-12T02:38:41;21.10;45.70
35363;DHT22;21463;47.480;8.214;2022-11-12T02:40:02;21.10;45.70
35363;DHT22;21463;47.480;8.214;2022-11-12T02:41:23;21.10;45.60
35363;DHT22;21463;47.480;8.214;2022-11-12T02:42:45;21.10;45.70
35363;DHT22;21463;47.480;8.214;2022-11-12T02:44:07;21.10;45.70
35363;DHT22;21463;47.480;8.214;2022-11-12T02:45:28;21.10;45.70
35363;DHT22;21463;47.480;8.214;2022-11-12T02:46:50;21.10;45.70
35363;DHT22;21463;47.480;8.214;2022-11-12T02:48:14;21.10;45.70
35363;DHT22;21463;47.480;8.214;2022-11-12T02:49:39;21.10;45.70
35363;DHT22;21463;47.480;8.214;2022-11-12T02:51:07;21.10;45.70
35363;DHT22;21463;47.480;8.214;2022-11-12T02:52:32;21.10;45.70
35363;DHT22;21463;47.480;8.214;2022-11-12T02:53:54;21.10;45.70
35363;DHT22;21463;47.480;8.214;2022-11-12T02:55:17;21.10;45.70
35363;DHT22;21463;47.480;8.214;2022-11-12T02:56:40;21.10;45.70
35363;DHT22;21463;47.480;8.214;2022-11-12T02:58:16;21.10;45.70
35363;DHT22;21463;47.480;8.214;2022-11-12T02:59:36;21.10;45.70
35363;DHT22;21463;47.480;8.214;2022-11-12T03:00:58;21.10;45.70
35363;DHT22;21463;47.480;8.214;2022-11-12T03:02:19;21.10;45.70
35363;DHT22;21463;47.480;8.214;2022-11-12T03:03:41;21.10;45.70
35363;DHT22;21463;47.480;8.214;2022-11-12T03:05:02;21.10;45.70
35363;DHT22;21463;47.480;8.214;2022-11-12T03:06:23;21.10;45.70
35363;DHT22;21463;47.480;8.214;2022-11-12T03:07:44;21.10;45.70
35363;DHT22;21463;47.480;8.214;2022-11-12T03:09:04;21.10;45.70
35363;DHT22;21463;47.480;8.214;2022-11-12T03:10:26;21.10;45.70
35363;DHT22;21463;47.480;8.214;2022-11-12T03:11:47;21.10;45.70
35363;DHT22;21463;47.480;8.214;2022-11-12T03:13:08;21.10;45.80
35363;DHT22;21463;47.480;8.214;2022-11-12T03:14:31;21.10;45.80
35363;DHT22;21463;47.480;8.214;2022-11-12T03:16:00;21.10;45.70
35363;DHT22;21463;47.480;8.214;2022-11-12T03:17:22;21.10;45.70
35363;DHT22;21463;47.480;8.214;2022-11-12T03:18:44;21.10;45.80
35363;DHT22;21463;47.480;8.214;2022-11-12T03:20:05;21.10;45.70
35363;DHT22;21463;47.480;8.214;2022-11-12T03:21:26;21.10;45.70
35363;DHT22;21463;47.480;8.214;2022-11-12T03:23:00;21.10;45.70
35363;DHT22;21463;47.480;8.214;2022-11-12T03:24:21;21.10;45.80
35363;DHT22;21463;47.480;8.214;2022-11-12T03:25:44;21.10;45.80
35363;DHT22;21463;47.480;8.214;2022-11-12T03:27:09;21.10;45.70
35363;DHT22;21463;47.480;8.214;2022-11-12T03:28:31;21.10;45.80
35363;DHT22;21463;47.480;8.214;2022-11-12T03:29:53;21.10;45.80
35363;DHT22;21463;47.480;8.214;2022-11-12T03:31:14;21.10;45.80
35363;DHT22;21463;47.480;8.214;2022-11-12T03:32:37;21.10;45.80
35363;DHT22;21463;47.480;8.214;2022-11-12T03:34:02;21.10;45.80
35363;DHT22;21463;47.480;8.214;2022-11-12T03:35:23;21.10;45.80
35363;DHT22;21463;47.480;8.214;2022-11-12T03:36:44;21.10;45.80
35363;DHT22;21463;47.480;8.214;2022-11-12T03:38:07;21.10;45.80
35363;DHT22;21463;47.480;8.214;2022-11-12T03:39:28;21.10;45.80
35363;DHT22;21463;47.480;8.214;2022-11-12T03:40:51;21.10;45.80
35363;DHT22;21463;47.480;8.214;2022-11-12T03:42:12;21.10;45.80
35363;DHT22;21463;47.480;8.214;2022-11-12T03:43:34;21.10;45.80
35363;DHT22;21463;47.480;8.214;2022-11-12T03:44:55;21.10;45.80
35363;DHT22;21463;47.480;8.214;2022-11-12T03:46:16;21.10;45.80
35363;DHT22;21463;47.480;8.214;2022-11-12T03:47:41;21.10;45.80
35363;DHT22;21463;47.480;8.214;2022-11-12T03:49:03;21.10;45.80
35363;DHT22;21463;47.480;8.214;2022-11-12T03:50:28;21.10;45.80
35363;DHT22;21463;47.480;8.214;2022-11-12T03:51:52;21.10;45.80
35363;DHT22;21463;47.480;8.214;2022-11-12T03:53:13;21.10;45.80
35363;DHT22;21463;47.480;8.214;2022-11-12T03:54:34;21.10;45.80
35363;DHT22;21463;47.480;8.214;2022-11-12T03:55:55;21.10;45.80
35363;DHT22;21463;47.480;8.214;2022-11-12T03:57:17;21.10;45.80
35363;DHT22;21463;47.480;8.214;2022-11-12T03:58:41;21.10;45.80
35363;DHT22;21463;47.480;8.214;2022-11-12T04:00:05;21.10;45.80
35363;DHT22;21463;47.480;8.214;2022-11-12T04:01:27;21.10;45.80
35363;DHT22;21463;47.480;8.214;2022-11-12T04:02:48;21.10;45.80
35363;DHT22;21463;47.480;8.214;2022-11-12T04:04:10;21.10;45.80
35363;DHT22;21463;47.480;8.214;2022-11-12T04:05:33;21.10;45.80
35363;DHT22;21463;47.480;8.214;2022-11-12T04:07:13;21.10;45.80
35363;DHT22;21463;47.480;8.214;2022-11-12T04:08:53;21.20;45.90
35363;DHT22;21463;47.480;8.214;2022-11-12T04:10:17;21.10;45.80
35363;DHT22;21463;47.480;8.214;2022-11-12T04:11:38;21.10;45.80
35363;DHT22;21463;47.480;8.214;2022-11-12T04:13:01;21.10;45.80
35363;DHT22;21463;47.480;8.214;2022-11-12T04:14:41;21.10;45.80
35363;DHT22;21463;47.480;8.214;2022-11-12T04:16:10;21.10;45.80
35363;DHT22;21463;47.480;8.214;2022-11-12T04:17:49;21.10;45.80
35363;DHT22;21463;47.480;8.214;2022-11-12T04:19:29;21.10;45.80
35363;DHT22;21463;47.480;8.214;2022-11-12T04:21:19;21.10;45.80
35363;DHT22;21463;47.480;8.214;2022-11-12T04:22:59;21.10;45.80
35363;DHT22;21463;47.480;8.214;2022-11-12T04:24:26;21.10;45.80
35363;DHT22;21463;47.480;8.214;2022-11-12T04:26:05;21.10;45.90
35363;DHT22;21463;47.480;8.214;2022-11-12T04:27:44;21.10;45.80
35363;DHT22;21463;47.480;8.214;2022-11-12T04:29:08;21.10;45.80
35363;DHT22;21463;47.480;8.214;2022-11-12T04:30:47;21.10;45.80
35363;DHT22;21463;47.480;8.214;2022-11-12T04:32:10;21.10;45.90
35363;DHT22;21463;47.480;8.214;2022-11-12T04:33:31;21.10;45.80
35363;DHT22;21463;47.480;8.214;2022-11-12T04:34:52;21.10;45.90
35363;DHT22;21463;47.480;8.214;2022-11-12T04:36:19;21.00;46.40
35363;DHT22;21463;47.480;8.214;2022-11-12T04:37:55;21.10;45.80
35363;DHT22;21463;47.480;8.214;2022-11-12T04:39:17;21.10;45.90
35363;DHT22;21463;47.480;8.214;2022-11-12T04:40:40;21.10;45.90
35363;DHT22;21463;47.480;8.214;2022-11-12T04:42:20;21.10;45.80
35363;DHT22;21463;47.480;8.214;2022-11-12T04:44:00;21.10;45.90
35363;DHT22;21463;47.480;8.214;2022-11-12T04:45:41;21.10;45.90
35363;DHT22;21463;47.480;8.214;2022-11-12T04:47:04;21.10;45.80
35363;DHT22;21463;47.480;8.214;2022-11-12T04:48:25;21.10;45.90
35363;DHT22;21463;47.480;8.214;2022-11-12T04:49:50;21.10;45.90
35363;DHT22;21463;47.480;8.214;2022-11-12T04:51:12;21.10;45.80
35363;DHT22;21463;47.480;8.214;2022-11-12T04:52:54;21.10;45.80
35363;DHT22;21463;47.480;8.214;2022-11-12T04:54:15;21.10;45.90
35363;DHT22;21463;47.480;8.214;2022-11-12T04:55:37;21.10;45.80
35363;DHT22;21463;47.480;8.214;2022-11-12T04:57:00;21.10;45.80
35363;DHT22;21463;47.480;8.214;2022-11-12T04:58:25;21.10;45.90
35363;DHT22;21463;47.480;8.214;2022-11-12T04:59:49;21.10;45.80
35363;DHT22;21463;47.480;8.214;2022-11-12T05:01:10;21.10;45.80
35363;DHT22;21463;47.480;8.214;2022-11-12T05:02:34;21.10;45.80
35363;DHT22;21463;47.480;8.214;2022-11-12T05:03:56;21.10;45.80
35363;DHT22;21463;47.480;8.214;2022-11-12T05:05:17;21.10;45.90
35363;DHT22;21463;47.480;8.214;2022-11-12T05:06:38;21.10;45.90
35363;DHT22;21463;47.480;8.214;2022-11-12T05:08:18;21.10;45.80
35363;DHT22;21463;47.480;8.214;2022-11-12T05:09:39;21.00;45.80
35363;DHT22;21463;47.480;8.214;2022-11-12T05:11:00;21.10;45.80
35363;DHT22;21463;47.480;8.214;2022-11-12T05:12:24;21.00;45.80
35363;DHT22;21463;47.480;8.214;2022-11-12T05:13:46;21.10;45.80
35363;DHT22;21463;47.480;8.214;2022-11-12T05:15:07;21.10;45.80
35363;DHT22;21463;47.480;8.214;2022-11-12T05:16:29;21.10;45.90
35363;DHT22;21463;47.480;8.214;2022-11-12T05:17:50;21.10;45.80
35363;DHT22;21463;47.480;8.214;2022-11-12T05:19:16;21.10;45.80
35363;DHT22;21463;47.480;8.214;2022-11-12T05:20:37;21.10;45.80
35363;DHT22;21463;47.480;8.214;2022-11-12T05:22:02;21.10;45.80
35363;DHT22;21463;47.480;8.214;2022-11-12T05:23:26;21.10;45.80
35363;DHT22;21463;47.480;8.214;2022-11-12T05:24:47;21.10;45.80
35363;DHT22;21463;47.480;8.214;2022-11-12T05:26:11;21.10;45.80
35363;DHT22;21463;47.480;8.214;2022-11-12T05:27:32;21.10;45.80
35363;DHT22;21463;47.480;8.214;2022-11-12T05:28:54;21.10;45.80
35363;DHT22;21463;47.480;8.214;2022-11-12T05:30:15;21.10;46.40
35363;DHT22;21463;47.480;8.214;2022-11-12T05:31:36;21.10;45.80
35363;DHT22;21463;47.480;8.214;2022-11-12T05:32:57;21.10;45.80
35363;DHT22;21463;47.480;8.214;2022-11-12T05:34:36;21.10;45.80
35363;DHT22;21463;47.480;8.214;2022-11-12T05:35:57;21.10;45.80
35363;DHT22;21463;47.480;8.214;2022-11-12T05:37:22;21.10;45.80
35363;DHT22;21463;47.480;8.214;2022-11-12T05:38:46;21.10;45.80
35363;DHT22;21463;47.480;8.214;2022-11-12T05:40:08;21.10;45.80
35363;DHT22;21463;47.480;8.214;2022-11-12T05:41:32;21.10;45.80
35363;DHT22;21463;47.480;8.214;2022-11-12T05:43:13;21.00;46.30
35363;DHT22;21463;47.480;8.214;2022-11-12T05:44:37;21.10;45.80
35363;DHT22;21463;47.480;8.214;2022-11-12T05:45:58;21.10;45.80
35363;DHT22;21463;47.480;8.214;2022-11-12T05:47:19;21.10;45.80
35363;DHT22;21463;47.480;8.214;2022-11-12T05:48:40;21.10;45.80
35363;DHT22;21463;47.480;8.214;2022-11-12T05:50:01;21.10;45.80
35363;DHT22;21463;47.480;8.214;2022-11-12T05:51:30;21.10;45.80
35363;DHT22;21463;47.480;8.214;2022-11-12T05:52:52;21.10;45.80
35363;DHT22;21463;47.480;8.214;2022-11-12T05:54:18;21.10;45.80
35363;DHT22;21463;47.480;8.214;2022-11-12T05:55:42;21.10;45.80
35363;DHT22;21463;47.480;8.214;2022-11-12T05:57:07;21.10;45.70
35363;DHT22;21463;47.480;8.214;2022-11-12T05:58:29;21.10;45.80
35363;DHT22;21463;47.480;8.214;2022-11-12T05:59:54;21.10;45.70
35363;DHT22;21463;47.480;8.214;2022-11-12T06:01:17;21.10;45.70
35363;DHT22;21463;47.480;8.214;2022-11-12T06:02:38;21.10;45.80
35363;DHT22;21463;47.480;8.214;2022-11-12T06:04:00;21.10;45.70
35363;DHT22;21463;47.480;8.214;2022-11-12T06:05:22;21.10;45.70
35363;DHT22;21463;47.480;8.214;2022-11-12T06:06:43;21.00;45.60
35363;DHT22;21463;47.480;8.214;2022-11-12T06:08:06;21.10;45.70
35363;DHT22;21463;47.480;8.214;2022-11-12T06:09:29;21.10;45.70
35363;DHT22;21463;47.480;8.214;2022-11-12T06:10:54;21.20;45.80
35363;DHT22;21463;47.480;8.214;2022-11-12T06:12:17;21.10;45.70
35363;DHT22;21463;47.480;8.214;2022-11-12T06:13:43;21.10;45.70
35363;DHT22;21463;47.480;8.214;2022-11-12T06:15:05;21.10;45.70
35363;DHT22;21463;47.480;8.214;2022-11-12T06:16:27;21.10;45.70
35363;DHT22;21463;47.480;8.214;2022-11-12T06:17:56;21.10;45.70
35363;DHT22;21463;47.480;8.214;2022-11-12T06:19:17;21.10;45.70
35363;DHT22;21463;47.480;8.214;2022-11-12T06:20:38;21.10;45.60
35363;DHT22;21463;47.480;8.214;2022-11-12T06:21:59;21.10;45.70
35363;DHT22;21463;47.480;8.214;2022-11-12T06:23:20;21.10;45.60
35363;DHT22;21463;47.480;8.214;2022-11-12T06:24:43;21.10;45.60
35363;DHT22;21463;47.480;8.214;2022-11-12T06:26:04;21.10;45.70
35363;DHT22;21463;47.480;8.214;2022-11-12T06:27:25;21.10;45.60
35363;DHT22;21463;47.480;8.214;2022-11-12T06:28:51;21.10;45.60
35363;DHT22;21463;47.480;8.214;2022-11-12T06:30:12;21.10;45.60
35363;DHT22;21463;47.480;8.214;2022-11-12T06:31:37;21.10;45.60
35363;DHT22;21463;47.480;8.214;2022-11-12T06:33:01;21.10;45.60
35363;DHT22;21463;47.480;8.214;2022-11-12T06:34:25;21.10;45.60
35363;DHT22;21463;47.480;8.214;2022-11-12T06:35:46;21.10;45.60
35363;DHT22;21463;47.480;8.214;2022-11-12T06:37:07;21.10;45.60
35363;DHT22;21463;47.480;8.214;2022-11-12T06:38:36;21.10;45.60
35363;DHT22;21463;47.480;8.214;2022-11-12T06:40:03;21.10;45.60
35363;DHT22;21463;47.480;8.214;2022-11-12T06:41:24;21.10;45.60
35363;DHT22;21463;47.480;8.214;2022-11-12T06:42:45;21.10;45.60
35363;DHT22;21463;47.480;8.214;2022-11-12T06:44:06;21.10;45.60
35363;DHT22;21463;47.480;8.214;2022-11-12T06:45:31;21.10;45.60
35363;DHT22;21463;47.480;8.214;2022-11-12T06:46:52;21.10;45.50
35363;DHT22;21463;47.480;8.214;2022-11-12T06:48:15;21.10;45.60
35363;DHT22;21463;47.480;8.214;2022-11-12T06:49:37;21.10;45.50
35363;DHT22;21463;47.480;8.214;2022-11-12T06:51:11;21.10;45.50
35363;DHT22;21463;47.480;8.214;2022-11-12T06:52:35;21.10;45.50
35363;DHT22;21463;47.480;8.214;2022-11-12T06:53:57;21.10;45.50
35363;DHT22;21463;47.480;8.214;2022-11-12T06:55:20;21.10;45.50
35363;DHT22;21463;47.480;8.214;2022-11-12T06:56:42;21.10;45.50
35363;DHT22;21463;47.480;8.214;2022-11-12T06:58:07;21.10;45.50
35363;DHT22;21463;47.480;8.214;2022-11-12T06:59:28;21.10;45.50
35363;DHT22;21463;47.480;8.214;2022-11-12T07:00:51;21.10;45.50
35363;DHT22;21463;47.480;8.214;2022-11-12T07:02:16;21.10;45.50
35363;DHT22;21463;47.480;8.214;2022-11-12T07:03:38;21.10;45.50
35363;DHT22;21463;47.480;8.214;2022-11-12T07:05:02;21.10;45.50
35363;DHT22;21463;47.480;8.214;2022-11-12T07:06:23;21.10;45.50
35363;DHT22;21463;47.480;8.214;2022-11-12T07:07:47;21.10;45.50
35363;DHT22;21463;47.480;8.214;2022-11-12T07:09:10;21.10;45.50
35363;DHT22;21463;47.480;8.214;2022-11-12T07:10:34;21.10;45.40
35363;DHT22;21463;47.480;8.214;2022-11-12T07:11:58;21.10;45.40
35363;DHT22;21463;47.480;8.214;2022-11-12T07:13:21;21.10;45.50
35363;DHT22;21463;47.480;8.214;2022-11-12T07:14:44;21.10;45.50
35363;DHT22;21463;47.480;8.214;2022-11-12T07:16:08;21.10;45.40
35363;DHT22;21463;47.480;8.214;2022-11-12T07:17:30;21.10;46.00
35363;DHT22;21463;47.480;8.214;2022-11-12T07:18:52;21.10;45.40
35363;DHT22;21463;47.480;8.214;2022-11-12T07:20:16;21.10;45.40
35363;DHT22;21463;47.480;8.214;2022-11-12T07:21:37;21.10;45.40
35363;DHT22;21463;47.480;8.214;2022-11-12T07:23:03;21.10;45.40
35363;DHT22;21463;47.480;8.214;2022-11-12T07:24:28;21.10;45.40
35363;DHT22;21463;47.480;8.214;2022-11-12T07:26:00;21.10;45.40
35363;DHT22;21463;47.480;8.214;2022-11-12T07:27:22;21.10;45.40
35363;DHT22;21463;47.480;8.214;2022-11-12T07:28:47;21.10;45.40
35363;DHT22;21463;47.480;8.214;2022-11-12T07:30:10;21.10;45.40
35363;DHT22;21463;47.480;8.214;2022-11-12T07:31:31;21.10;45.30
35363;DHT22;21463;47.480;8.214;2022-11-12T07:32:56;21.10;45.30
35363;DHT22;21463;47.480;8.214;2022-11-12T07:34:17;21.10;45.40
35363;DHT22;21463;47.480;8.214;2022-11-12T07:35:39;21.10;45.30
35363;DHT22;21463;47.480;8.214;2022-11-12T07:37:00;21.10;45.30
35363;DHT22;21463;47.480;8.214;2022-11-12T07:38:25;21.10;45.30
35363;DHT22;21463;47.480;8.214;2022-11-12T07:39:48;21.10;45.30
35363;DHT22;21463;47.480;8.214;2022-11-12T07:41:12;21.10;45.30
35363;DHT22;21463;47.480;8.214;2022-11-12T07:42:37;21.10;45.30
35363;DHT22;21463;47.480;8.214;2022-11-12T07:44:00;21.10;45.30
35363;DHT22;21463;47.480;8.214;2022-11-12T07:45:21;21.10;45.30
35363;DHT22;21463;47.480;8.214;2022-11-12T07:46:42;21.00;45.20
35363;DHT22;21463;47.480;8.214;2022-11-12T07:48:07;21.10;45.30
35363;DHT22;21463;47.480;8.214;2022-11-12T07:49:28;21.10;45.20
35363;DHT22;21463;47.480;8.214;2022-11-12T07:51:02;21.10;45.30
35363;DHT22;21463;47.480;8.214;2022-11-12T07:52:31;21.10;45.20
35363;DHT22;21463;47.480;8.214;2022-11-12T07:53:55;21.10;45.20
35363;DHT22;21463;47.480;8.214;2022-11-12T07:55:23;21.00;45.10
35363;DHT22;21463;47.480;8.214;2022-11-12T07:56:47;21.10;45.30
35363;DHT22;21463;47.480;8.214;2022-11-12T07:58:10;21.10;45.20
35363;DHT22;21463;47.480;8.214;2022-11-12T07:59:34;21.10;45.20
35363;DHT22;21463;47.480;8.214;2022-11-12T08:00:55;21.10;45.30
35363;DHT22;21463;47.480;8.214;2022-11-12T08:02:18;21.10;45.20
35363;DHT22;21463;47.480;8.214;2022-11-12T08:03:39;21.10;45.50
35363;DHT22;21463;47.480;8.214;2022-11-12T08:05:09;21.10;45.20
35363;DHT22;21463;47.480;8.214;2022-11-12T08:06:39;21.10;45.20
35363;DHT22;21463;47.480;8.214;2022-11-12T08:08:06;21.10;45.20
35363;DHT22;21463;47.480;8.214;2022-11-12T08:09:28;21.10;45.20
35363;DHT22;21463;47.480;8.214;2022-11-12T08:10:53;21.10;45.20
35363;DHT22;21463;47.480;8.214;2022-11-12T08:12:15;21.10;45.20
35363;DHT22;21463;47.480;8.214;2022-11-12T08:13:39;21.10;45.20
35363;DHT22;21463;47.480;8.214;2022-11-12T08:15:01;21.10;45.20
35363;DHT22;21463;47.480;8.214;2022-11-12T08:16:21;21.10;45.20
35363;DHT22;21463;47.480;8.214;2022-11-12T08:17:45;21.00;45.10
35363;DHT22;21463;47.480;8.214;2022-11-12T08:19:09;21.10;45.20
35363;DHT22;21463;47.480;8.214;2022-11-12T08:20:31;21.10;45.10
35363;DHT22;21463;47.480;8.214;2022-11-12T08:21:54;21.10;45.10
35363;DHT22;21463;47.480;8.214;2022-11-12T08:23:19;21.10;45.10
35363;DHT22;21463;47.480;8.214;2022-11-12T08:24:43;21.00;45.10
35363;DHT22;21463;47.480;8.214;2022-11-12T08:26:05;21.00;45.10
35363;DHT22;21463;47.480;8.214;2022-11-12T08:27:27;21.10;45.00
35363;DHT22;21463;47.480;8.214;2022-11-12T08:28:49;21.10;45.10
35363;DHT22;21463;47.480;8.214;2022-11-12T08:30:13;21.10;45.10
35363;DHT22;21463;47.480;8.214;2022-11-12T08:31:34;21.10;45.10
35363;DHT22;21463;47.480;8.214;2022-11-12T08:32:58;21.10;45.00
35363;DHT22;21463;47.480;8.214;2022-11-12T08:34:19;21.10;45.00
35363;DHT22;21463;47.480;8.214;2022-11-12T08:35:45;21.10;45.00
35363;DHT22;21463;47.480;8.214;2022-11-12T08:37:06;21.00;45.00
35363;DHT22;21463;47.480;8.214;2022-11-12T08:38:29;21.10;45.10
35363;DHT22;21463;47.480;8.214;2022-11-12T08:39:58;21.10;45.00
35363;DHT22;21463;47.480;8.214;2022-11-12T08:41:22;21.10;45.00
35363;DHT22;21463;47.480;8.214;2022-11-12T08:42:43;21.10;45.00
35363;DHT22;21463;47.480;8.214;2022-11-12T08:44:07;21.00;45.00
35363;DHT22;21463;47.480;8.214;2022-11-12T08:45:34;21.10;45.00
35363;DHT22;21463;47.480;8.214;2022-11-12T08:46:55;21.10;45.00
35363;DHT22;21463;47.480;8.214;2022-11-12T08:48:18;21.10;45.00
35363;DHT22;21463;47.480;8.214;2022-11-12T08:49:38;21.10;45.00
35363;DHT22;21463;47.480;8.214;2022-11-12T08:51:09;21.10;45.00
35363;DHT22;21463;47.480;8.214;2022-11-12T08:52:37;21.10;45.00